Detall de PIREP

Printer-friendly versionPDF version

[2015/01/26 11:06:00]
Flight IATA:CT1005
Pilot Number:011
Company ICAO:CAT
Aircraft Type:B738/F
PAX:160
Departing Airport: EETN
Destination Airport: EFVA
Alternate Airport:EFHK
Online: VATSIM
Route:PETOT N609 DEMOT
Flight Level:F240
No Slew and time accel
No pause
Crash detect
Detect pilot in Cockpit between each 30 and 45 minutes
11:06 Zero fuel Weight: 135490 Lbs, Fuel Weight: 12427 Lbs
11:06 VATSIM:EETN 261050Z 19007KT 5000 OVC003 M01/M01 Q1017 R08/19//95 NOSIG
11:06 VATSIM:EFVA 261050Z AUTO 18016KT 4000 -SN BKN008/// BKN015/// OVC026/// M00/M01 Q1006 R16/39//95
11:08 Parking Brakes off
11:23 Take-off
11:23 Take off Weight: 146790 Lbs
11:23 Wind: 184º @ 007 Knots Heading: 268º
11:23 POS N59º 24´ 47´´ E024º 49´ 56´´
11:23 Flaps:5 at 169 Knots
11:23 Gear Up: 173 Knots
11:24 Flaps:4 at 233 Knots
11:24 Flaps:3 at 236 Knots
11:24 Flaps:2 at 239 Knots
11:24 Flaps:1 at 240 Knots
11:24 Flaps:0 at 242 Knots
11:33 TOC
11:33 Fuel Weight: 8919 Lb
11:38 Wind:200º@026 Knots Heading: 333º Ground Speed: 445 Knots Altitude 24035 ft
11:51 TOD
11:51 Fuel Weight: 7009 Lb
11:53 Wind:263º@030 Knots Heading: 358º Ground Speed: 409 Knots Altitude 21145 ft
12:08 Wind:195º@019 Knots Heading: 334º Ground Speed: 245 Knots Altitude 1686 ft
12:09 Flaps:1 at 229 Knots
12:09 Flaps:2 at 229 Knots
12:09 Flaps:3 at 228 Knots
12:10 Flaps:4 at 230 Knots
12:11 Flaps:5 at 227 Knots
12:12 Flaps:6 at 216 Knots
12:13 Gear Down: 182 Knots
12:13 Flaps:7 at 172 Knots
12:14 Flaps:8 at 157 Knots
12:16 TouchDown:Rate -185 ft/min Speed: 130 Knots
12:16 VATSIM:EFVA 261150Z AUTO 18014KT 3500 -SN OVC008/// M00/M01 Q1006 R16/39//95
12:16 Land
12:16 Wind:175º@014 Knots
12:16 Heading: 160º
12:16 Flight Duration: 00:53
12:16 Landing Weight: 141082 Lbs
12:16 POS N63º 02´ 59´´ E021º 45´ 44´´
12:18 Parking brakes on
12:18 Block to Block Duration: 01:10
12:18 Final Fuel: 5423 Lbls
12:18 Spent Fuel: 7003 Lbls
12:18 Flight Length: 298 NM
12:18 TOD Land Length: 119 NM

Exportar CSV

Powered by Drupal - Modified by Danger4k